Time;durP1;ratioP1;P1;durP2;ratioP2;P2;SDS_P1;SDS_P2;PMS_P1;PMS_P2;Temp;Humidity;BMP_temperature;BMP_pressure;BME280_temperature;BME280_humidity;BME280_pressure;Samples;Min_cycle;Max_cycle;Signal;HPM_P1;HPM_P2
2022/01/25 00:28:25;;;;;;;20.55;10.75;;;;;;;-8.91;63.38;96641.13;5047472;28;20075;-70
2022/01/25 00:33:36;;;;;;;18.13;10.23;;;;;;;-8.91;63.39;96641.13;5047408;28;20036;-71
2022/01/25 00:36:05;;;;;;;21.70;11.60;;;;;;;-8.88;63.41;96631.22;5046898;28;20037;-71
2022/01/25 00:38:31;;;;;;;20.15;12.20;;;;;;;-8.88;63.62;96633.75;5050459;28;20383;-73
2022/01/25 00:40:56;;;;;;;25.30;13.82;;;;;;;-9.68;63.45;96504.09;5050754;28;20116;-72
2022/01/25 00:43:24;;;;;;;28.67;15.90;;;;;;;-9.17;63.91;96590.97;5050946;28;20040;-70
2022/01/25 00:45:52;;;;;;;32.72;17.55;;;;;;;-9.12;63.43;96593.66;5033025;28;20029;-70
2022/01/25 00:48:29;;;;;;;28.48;18.02;;;;;;;-9.24;64.28;96571.53;5050257;28;20045;-71
2022/01/25 00:51:03;;;;;;;32.38;18.48;;;;;;;-9.02;63.59;96627.34;5050574;28;20288;-71
2022/01/25 00:56:14;;;;;;;22.77;12.13;;;;;;;-9.13;63.64;96607.81;5050930;28;20031;-70
2022/01/25 00:58:40;;;;;;;22.33;13.80;;;;;;;-10.18;64.25;96441.41;5050558;28;20052;-71
2022/01/25 01:01:05;;;;;;;28.60;17.13;;;;;;;-9.01;63.97;96624.91;5050250;28;20075;-72
2022/01/25 01:03:30;;;;;;;21.83;13.48;;;;;;;-9.03;63.78;96624.00;5050693;28;20033;-71
2022/01/25 01:05:56;;;;;;;23.65;12.68;;;;;;;-9.00;63.76;96620.75;5050851;28;20024;-71
2022/01/25 01:08:21;;;;;;;19.98;10.10;;;;;;;-9.90;63.71;96467.47;5050826;28;20032;-72
2022/01/25 01:10:47;;;;;;;20.60;12.27;;;;;;;-9.05;64.27;96623.06;5032114;28;20040;-71
2022/01/25 01:33:00;;;;;;;16.02;7.53;;;;;;;-8.98;64.80;96601.69;4969001;28;20078;-71
2022/01/25 01:43:25;;;;;;;17.13;10.85;;;;;;;-9.27;65.07;96548.94;4968107;28;20576;-73
2022/01/25 01:48:35;;;;;;;19.92;10.82;;;;;;;-9.23;65.25;96568.22;4967437;28;20086;-70
2022/01/25 01:51:14;;;;;;;11.25;8.05;;;;;;;-9.14;65.58;96568.59;4968276;28;20038;-69
2022/01/25 01:53:40;;;;;;;18.40;9.55;;;;;;;-9.59;65.31;96471.16;4968376;28;20486;-71
2022/01/25 01:56:06;;;;;;;14.77;7.45;;;;;;;-9.29;65.22;96531.38;5044354;28;20103;-72
2022/01/25 01:58:35;;;;;;;15.32;8.95;;;;;;;-9.07;65.11;96578.06;5049634;28;20464;-71
2022/01/25 02:01:01;;;;;;;17.77;10.43;;;;;;;-8.96;65.47;96587.59;5049385;28;20388;-72
2022/01/25 02:03:27;;;;;;;18.80;9.77;;;;;;;-9.07;65.75;96587.19;5049554;28;20044;-70
2022/01/25 02:05:52;;;;;;;19.58;11.52;;;;;;;-9.62;66.16;96481.84;5049232;28;20029;-71
2022/01/25 02:08:18;;;;;;;15.73;8.40;;;;;;;-9.22;65.62;96536.63;5049402;28;20112;-70
2022/01/25 02:10:44;;;;;;;17.30;10.32;;;;;;;-9.21;65.74;96546.69;5049173;28;20102;-71
2022/01/25 02:13:10;;;;;;;20.98;11.05;;;;;;;-8.90;65.66;96583.66;5048707;28;20038;-71
2022/01/25 02:15:37;;;;;;;13.30;8.45;;;;;;;-8.91;65.24;96584.47;5049175;28;20040;-71
2022/01/25 02:23:21;;;;;;;16.35;8.88;;;;;;;-9.01;65.57;96586.56;5048943;28;20043;-72
2022/01/25 02:25:49;;;;;;;17.80;10.48;;;;;;;-9.28;66.94;96545.59;5048470;28;20126;-70
2022/01/25 02:28:15;;;;;;;21.90;8.73;;;;;;;-9.40;66.77;96526.78;5048661;28;20086;-72
2022/01/25 02:30:43;;;;;;;17.15;9.55;;;;;;;-9.40;67.25;96506.81;5048809;28;20033;-70
2022/01/25 02:33:08;;;;;;;13.93;9.20;;;;;;;-9.32;67.18;96542.91;5048804;28;20031;-71
2022/01/25 02:35:34;;;;;;;20.73;10.15;;;;;;;-9.35;67.79;96535.31;5049014;28;20020;-70
2022/01/25 02:38:00;;;;;;;20.63;10.98;;;;;;;-9.39;68.42;96553.44;5048191;28;20381;-70
2022/01/25 02:40:26;;;;;;;18.20;10.10;;;;;;;-10.42;68.41;96396.41;5030513;28;20017;-71
2022/01/25 02:42:52;;;;;;;18.10;10.98;;;;;;;-9.19;68.57;96560.06;5048060;28;20029;-71
2022/01/25 02:45:18;;;;;;;22.30;11.45;;;;;;;-9.31;68.66;96534.59;5048647;28;20029;-72
2022/01/25 02:50:30;;;;;;;18.65;10.95;;;;;;;-9.41;68.78;96505.97;5048856;28;20104;-70
2022/01/25 02:52:56;;;;;;;20.65;11.23;;;;;;;-9.19;68.61;96560.06;5047999;28;20033;-72
2022/01/25 02:55:22;;;;;;;20.75;11.40;;;;;;;-9.47;69.10;96529.03;5048100;28;20032;-71
2022/01/25 02:57:48;;;;;;;18.50;11.18;;;;;;;-9.22;68.95;96547.47;5048229;28;20021;-72
2022/01/25 03:00:15;;;;;;;12.40;6.97;;;;;;;-9.86;69.02;96435.97;5047191;28;20052;-73
2022/01/25 03:02:41;;;;;;;23.23;10.98;;;;;;;-9.66;68.61;96470.03;5048120;28;20043;-71
2022/01/25 03:05:07;;;;;;;26.52;13.63;;;;;;;-9.28;68.80;96548.09;5048212;28;20557;-71
2022/01/25 03:07:34;;;;;;;18.80;11.38;;;;;;;-9.32;69.10;96550.41;5048096;28;20029;-71
2022/01/25 03:10:00;;;;;;;23.15;12.60;;;;;;;-9.66;68.51;96500.00;5047741;28;20051;-71
2022/01/25 03:12:41;;;;;;;18.70;11.98;;;;;;;-9.32;69.08;96551.25;5047827;28;20024;-71
2022/01/25 03:17:55;;;;;;;21.77;13.07;;;;;;;-9.45;69.40;96544.09;5048219;28;20276;-70
2022/01/25 03:23:17;;;;;;;25.63;13.60;;;;;;;-9.55;69.03;96552.88;4946886;29;20085;-70
2022/01/25 03:25:43;;;;;;;21.02;12.60;;;;;;;-9.58;69.07;96546.91;4947177;29;20079;-71
2022/01/25 03:28:09;;;;;;;23.10;13.48;;;;;;;-9.80;68.76;96523.59;4947438;29;20039;-70
2022/01/25 03:30:35;;;;;;;19.98;13.45;;;;;;;-9.90;68.37;96499.03;4947609;29;20035;-69
2022/01/25 03:33:00;;;;;;;22.90;12.73;;;;;;;-9.93;68.37;96492.28;4947241;29;20035;-71
2022/01/25 03:35:26;;;;;;;23.48;13.20;;;;;;;-9.63;68.50;96536.72;4947344;29;20116;-69
2022/01/25 03:37:54;;;;;;;25.48;13.75;;;;;;;-9.80;68.12;96513.59;4947181;29;20028;-70
2022/01/25 03:40:20;;;;;;;22.38;13.10;;;;;;;-9.85;68.71;96515.91;4931543;29;20426;-68
2022/01/25 03:42:48;;;;;;;29.85;15.13;;;;;;;-9.80;68.82;96531.06;4947405;29;20055;-70
2022/01/25 03:45:19;;;;;;;26.95;13.82;;;;;;;-9.79;68.44;96525.28;4947400;29;20097;-71
2022/01/25 03:47:58;;;;;;;24.65;13.90;;;;;;;-9.98;69.04;96509.56;4946821;29;20050;-72
2022/01/25 03:50:24;;;;;;;21.65;13.70;;;;;;;-9.85;69.32;96525.91;4947410;29;20043;-71
2022/01/25 03:52:50;;;;;;;25.63;13.10;;;;;;;-9.83;68.98;96516.81;4946726;29;20031;-71
2022/01/25 03:55:16;;;;;;;21.08;12.27;;;;;;;-10.55;68.83;96390.06;4947314;29;20042;-71
2022/01/25 03:57:41;;;;;;;23.08;11.60;;;;;;;-9.80;68.15;96488.63;4947241;29;20498;-70
2022/01/25 04:00:09;;;;;;;22.17;11.43;;;;;;;-9.66;67.99;96491.66;4992652;28;20064;-71
2022/01/25 04:02:36;;;;;;;24.13;10.85;;;;;;;-9.37;68.02;96522.75;5047579;28;20029;-70
2022/01/25 04:05:05;;;;;;;23.02;12.20;;;;;;;-9.79;68.08;96435.41;5047637;28;20083;-72
2022/01/25 04:07:44;;;;;;;25.73;12.82;;;;;;;-9.96;67.82;96408.97;5028950;28;20025;-71
2022/01/25 04:10:09;;;;;;;22.75;13.57;;;;;;;-9.52;67.27;96469.72;5047076;28;20028;-71
2022/01/25 04:12:35;;;;;;;21.63;12.95;;;;;;;-9.26;67.28;96523.16;5050269;28;20029;-72
2022/01/25 04:15:02;;;;;;;18.40;11.98;;;;;;;-9.77;67.37;96425.47;5051177;28;20036;-70
2022/01/25 04:17:28;;;;;;;19.77;11.07;;;;;;;-9.28;66.98;96509.75;5051530;28;20021;-72
2022/01/25 04:20:17;;;;;;;19.73;10.85;;;;;;;-9.40;67.07;96497.66;5051391;28;20079;-70
2022/01/25 04:25:26;;;;;;;19.38;11.98;;;;;;;-9.67;66.75;96435.03;5051155;28;20036;-70
2022/01/25 04:27:52;;;;;;;21.52;13.77;;;;;;;-9.17;66.54;96513.50;5051274;28;20024;-71
2022/01/25 04:30:17;;;;;;;19.27;10.82;;;;;;;-9.18;66.12;96521.81;5051218;28;20105;-71
2022/01/25 04:32:55;;;;;;;23.08;13.45;;;;;;;-9.16;66.15;96514.38;5050853;28;20017;-69
2022/01/25 04:49:01;;;;;;;21.23;13.02;;;;;;;-9.18;65.89;96514.31;5050284;28;20075;-70
2022/01/25 04:51:41;;;;;;;17.52;10.63;;;;;;;-9.24;65.01;96514.06;5050844;28;20033;-70
2022/01/25 04:54:17;;;;;;;17.92;11.10;;;;;;;-9.47;66.00;96526.53;5050529;28;20028;-71
2022/01/25 04:56:53;;;;;;;16.20;9.70;;;;;;;-9.89;66.56;96478.28;5050826;28;20104;-71
2022/01/25 05:01:54;;;;;;;11.77;7.40;;;;;;;-10.11;67.34;96491.56;5050145;28;20147;-71
2022/01/25 05:04:26;;;;;;;19.50;10.27;;;;;;;-10.35;68.02;96473.16;5050170;28;20488;-70
2022/01/25 05:06:56;;;;;;;21.60;12.95;;;;;;;-10.32;69.14;96494.91;5050439;28;20055;-72
2022/01/25 05:09:21;;;;;;;24.30;13.73;;;;;;;-10.27;70.09;96515.88;5050383;28;20025;-71
2022/01/25 05:11:49;;;;;;;19.15;10.80;;;;;;;-10.29;70.20;96519.94;5049689;28;20125;-72
2022/01/25 05:14:25;;;;;;;17.65;11.00;;;;;;;-10.90;69.82;96428.53;5050307;28;20057;-71
2022/01/25 05:16:54;;;;;;;17.70;11.20;;;;;;;-10.69;70.53;96453.47;5047105;28;20075;-68
2022/01/25 05:22:03;;;;;;;20.05;11.60;;;;;;;-10.41;70.09;96492.03;5031155;28;20029;-71
2022/01/25 05:24:45;;;;;;;17.45;10.15;;;;;;;-10.37;70.33;96471.44;5029883;28;20033;-70
2022/01/25 05:27:14;;;;;;;21.38;11.60;;;;;;;-10.66;70.66;96431.16;5030336;28;20017;-71
2022/01/25 05:29:39;;;;;;;25.98;12.60;;;;;;;-10.43;70.91;96457.03;5012341;28;20103;-71
2022/01/25 05:32:06;;;;;;;17.40;11.85;;;;;;;-10.26;70.77;96499.25;5030062;28;20037;-71
2022/01/25 05:34:32;;;;;;;24.98;14.27;;;;;;;-10.46;70.56;96464.44;5030223;28;20683;-73
2022/01/25 05:36:58;;;;;;;20.02;11.68;;;;;;;-10.24;70.49;96485.22;5029396;28;20037;-73
2022/01/25 05:39:29;;;;;;;24.10;14.52;;;;;;;-10.70;70.27;96421.88;5029783;28;20018;-71
2022/01/25 05:42:02;;;;;;;20.63;10.05;;;;;;;-10.50;70.75;96451.75;5012288;28;20449;-72
2022/01/25 05:47:07;;;;;;;18.95;11.27;;;;;;;-10.39;70.84;96468.88;5029563;28;20053;-71
2022/01/25 05:49:35;;;;;;;16.40;10.57;;;;;;;-10.38;70.83;96464.72;5029411;28;20738;-70
2022/01/25 05:52:02;;;;;;;19.65;11.48;;;;;;;-10.25;70.62;96486.84;5029664;28;20029;-70
2022/01/25 05:54:27;;;;;;;25.58;14.23;;;;;;;-10.19;70.65;96491.25;5029790;28;20083;-72
2022/01/25 05:56:53;;;;;;;13.68;8.07;;;;;;;-10.46;68.55;96399.59;5029999;28;20018;-68
2022/01/25 05:59:18;;;;;;;26.63;14.60;;;;;;;-9.92;68.86;96481.50;5029502;28;20112;-70
2022/01/25 06:01:48;;;;;;;15.50;11.43;;;;;;;-10.45;68.36;96395.44;5029356;28;20041;-70
2022/01/25 06:04:13;;;;;;;17.38;11.18;;;;;;;-9.94;68.57;96480.59;5029501;28;20033;-71
2022/01/25 06:06:39;;;;;;;17.55;10.48;;;;;;;-9.82;68.70;96497.69;5043008;28;20035;-72
2022/01/25 06:09:04;;;;;;;17.45;10.50;;;;;;;-10.14;68.08;96436.53;5043506;28;20078;-72
2022/01/25 06:11:30;;;;;;;19.13;11.55;;;;;;;-9.77;68.06;96488.75;5045263;28;20040;-73
2022/01/25 06:13:55;;;;;;;25.35;12.98;;;;;;;-10.01;68.45;96456.19;5043348;28;20040;-70
2022/01/25 06:16:21;;;;;;;14.88;11.23;;;;;;;-9.61;67.78;96506.03;5044042;28;20025;-73
2022/01/25 06:18:49;;;;;;;27.83;12.75;;;;;;;-9.46;67.59;96494.91;5022260;28;20526;-74
2022/01/25 06:21:14;;;;;;;22.70;13.43;;;;;;;-9.41;67.05;96493.47;5040532;28;20031;-71
2022/01/25 06:23:41;;;;;;;22.63;12.68;;;;;;;-9.52;66.58;96473.06;5045241;28;20039;-71
2022/01/25 06:26:06;;;;;;;19.63;12.75;;;;;;;-9.34;66.71;96492.06;5039276;28;20121;-73
2022/01/25 06:28:32;;;;;;;18.27;9.02;;;;;;;-9.82;65.85;96412.81;5031758;28;20542;-74
2022/01/25 06:30:57;;;;;;;20.67;12.75;;;;;;;-9.32;66.47;96488.78;5039335;28;20037;-72
2022/01/25 06:33:23;;;;;;;23.75;13.45;;;;;;;-9.31;65.72;96477.16;5030904;28;20029;-70
2022/01/25 06:35:49;;;;;;;29.00;14.05;;;;;;;-9.23;65.72;96483.28;5040328;28;20429;-70
2022/01/25 06:38:15;;;;;;;17.42;11.07;;;;;;;-9.51;65.22;96433.94;5035751;28;20496;-70
2022/01/25 06:40:40;;;;;;;24.42;11.93;;;;;;;-9.24;65.03;96466.59;5034399;28;20026;-73
2022/01/25 06:43:06;;;;;;;26.02;13.52;;;;;;;-9.39;64.66;96439.41;5029868;28;20094;-72
2022/01/25 06:45:32;;;;;;;28.50;16.05;;;;;;;-8.98;64.44;96484.19;5030203;28;20651;-73
2022/01/25 06:47:57;;;;;;;22.85;13.55;;;;;;;-9.21;64.20;96485.84;5034806;28;20049;-73
2022/01/25 06:50:23;;;;;;;20.95;10.77;;;;;;;-9.13;64.20;96456.97;5033890;28;20060;-74
2022/01/25 06:52:50;;;;;;;16.48;10.88;;;;;;;-9.47;64.26;96394.16;5036973;28;20044;-73
2022/01/25 06:55:18;;;;;;;26.05;15.10;;;;;;;-9.17;63.81;96411.03;5036506;28;20039;-74
2022/01/25 06:57:45;;;;;;;25.40;13.43;;;;;;;-9.62;63.32;96303.72;5015044;28;20033;-73
2022/01/25 07:00:14;;;;;;;24.38;13.85;;;;;;;-8.56;62.09;96421.44;5033194;28;20033;-74
2022/01/25 07:02:39;;;;;;;19.58;12.65;;;;;;;-8.30;61.45;96472.31;5038088;28;20499;-72
2022/01/25 07:05:07;;;;;;;18.10;10.25;;;;;;;-8.05;61.86;96481.50;5029062;28;20045;-72
2022/01/25 07:07:33;;;;;;;28.48;13.75;;;;;;;-8.08;60.48;96463.00;5043233;28;20037;-74
2022/01/25 07:09:58;;;;;;;15.00;9.73;;;;;;;-8.10;59.78;96474.63;5043968;28;20459;-71
2022/01/25 07:12:24;;;;;;;28.17;13.75;;;;;;;-8.59;59.61;96374.69;5043812;28;20057;-71
2022/01/25 07:14:50;;;;;;;16.63;10.57;;;;;;;-8.53;60.73;96404.88;5042023;28;20083;-74
2022/01/25 07:17:16;;;;;;;20.90;12.07;;;;;;;-9.15;59.94;96304.53;5045215;28;20060;-70
2022/01/25 07:19:42;;;;;;;20.60;12.90;;;;;;;-9.27;60.51;96251.63;5040682;28;20556;-73
2022/01/25 07:22:07;;;;;;;18.92;12.57;;;;;;;-9.26;60.32;96256.66;5045012;28;20520;-74
2022/01/25 07:24:33;;;;;;;18.98;10.77;;;;;;;-9.35;60.81;96273.84;5040262;28;20099;-75
2022/01/25 07:26:59;;;;;;;21.92;11.23;;;;;;;-8.34;60.59;96438.84;5045116;28;20032;-75
2022/01/25 07:29:25;;;;;;;24.80;13.60;;;;;;;-10.22;60.41;96109.44;5041816;28;20558;-75
2022/01/25 07:31:51;;;;;;;29.73;10.63;;;;;;;-9.69;60.94;96236.88;5044956;28;20029;-73
2022/01/25 07:34:17;;;;;;;28.15;12.85;;;;;;;-9.55;60.56;96250.69;5043132;28;20866;-69
2022/01/25 07:36:43;;;;;;;19.83;10.38;;;;;;;-8.26;61.13;96443.25;5044081;28;20032;-69
2022/01/25 07:39:10;;;;;;;30.95;16.38;;;;;;;-8.30;61.29;96422.28;5042217;28;20120;-68
2022/01/25 07:41:37;;;;;;;34.17;16.33;;;;;;;-8.40;61.40;96380.25;5043911;28;20112;-67
2022/01/25 07:44:03;;;;;;;27.23;15.02;;;;;;;-7.95;60.16;96428.41;5043061;28;20106;-67
2022/01/25 07:46:29;;;;;;;29.73;16.98;;;;;;;-7.78;59.99;96433.94;5040894;28;20033;-70
2022/01/25 07:48:56;;;;;;;26.83;14.38;;;;;;;-7.57;59.47;96443.75;5042991;28;20222;-67
2022/01/25 07:51:21;;;;;;;25.55;11.85;;;;;;;-7.57;59.11;96463.81;5029684;28;20057;-67
2022/01/25 07:53:48;;;;;;;31.52;16.90;;;;;;;-7.56;59.25;96449.63;5048409;28;20482;-70
2022/01/25 07:56:17;;;;;;;25.80;14.45;;;;;;;-7.47;59.35;96457.41;5045675;28;20036;-66
2022/01/25 07:58:42;;;;;;;28.50;14.13;;;;;;;-7.32;57.82;96454.50;5031178;28;20114;-66
2022/01/25 08:01:11;;;;;;;24.13;14.07;;;;;;;-7.28;58.68;96458.81;5040933;28;20077;-68
2022/01/25 08:03:37;;;;;;;29.58;15.23;;;;;;;-7.31;59.26;96456.22;5031065;28;20114;-68
2022/01/25 08:06:07;;;;;;;31.15;16.92;;;;;;;-7.29;57.52;96431.22;5038900;28;20029;-68
2022/01/25 08:08:36;;;;;;;26.80;15.45;;;;;;;-6.83;57.70;96452.56;5033165;28;20116;-66
2022/01/25 08:11:03;;;;;;;18.10;12.05;;;;;;;-7.53;58.11;96382.06;5035153;28;20068;-69
2022/01/25 08:13:32;;;;;;;24.70;12.32;;;;;;;-6.92;57.55;96448.13;5044924;28;20562;-68
2022/01/25 08:16:11;;;;;;;19.65;11.77;;;;;;;-6.88;57.27;96426.50;5047301;28;20021;-67
2022/01/25 08:18:40;;;;;;;24.35;14.30;;;;;;;-6.65;56.78;96450.53;5028836;28;20407;-69
2022/01/25 08:21:06;;;;;;;18.92;12.57;;;;;;;-6.85;58.06;96450.00;5055458;28;20033;-67
2022/01/25 08:23:31;;;;;;;25.83;11.93;;;;;;;-6.95;58.07;96442.16;5054462;28;20535;-70
2022/01/25 08:25:57;;;;;;;17.52;12.02;;;;;;;-5.56;53.72;96443.94;5054158;28;20037;-67
2022/01/25 08:28:22;;;;;;;18.83;12.27;;;;;;;-4.85;50.50;96413.56;5054325;28;20052;-68
2022/01/25 08:30:48;;;;;;;23.05;12.20;;;;;;;-5.22;51.97;96422.88;5054585;28;20041;-67
2022/01/25 08:33:13;;;;;;;21.35;10.07;;;;;;;-4.88;48.81;96317.88;5054840;28;20028;-68
2022/01/25 08:35:39;;;;;;;18.45;11.45;;;;;;;-3.23;46.81;96430.44;5055243;28;20059;-66
2022/01/25 08:38:04;;;;;;;17.90;12.32;;;;;;;-1.88;42.88;96410.84;5054616;28;20029;-67
2022/01/25 08:40:30;;;;;;;19.98;13.55;;;;;;;-1.99;43.76;96402.34;5052321;28;20028;-68
2022/01/25 08:42:57;;;;;;;17.40;11.50;;;;;;;-0.86;40.09;96361.63;5042571;28;20036;-67
2022/01/25 08:45:22;;;;;;;22.45;13.98;;;;;;;-0.64;39.42;96374.38;5047517;28;20037;-68
2022/01/25 08:47:50;;;;;;;21.58;11.02;;;;;;;-0.43;37.37;96371.03;5046378;28;20103;-69
2022/01/25 08:50:16;;;;;;;21.70;11.90;;;;;;;-0.43;38.49;96368.50;5043210;28;20029;-69
2022/01/25 08:52:42;;;;;;;19.15;12.35;;;;;;;-0.03;37.17;96321.22;5023336;28;20036;-68
2022/01/25 08:55:08;;;;;;;23.90;12.85;;;;;;;0.66;36.08;96391.31;5045711;28;20435;-70
2022/01/25 08:57:34;;;;;;;18.15;10.27;;;;;;;0.48;36.18;96397.25;5046569;28;20028;-67
2022/01/25 09:00:00;;;;;;;17.02;10.73;;;;;;;0.08;35.21;96231.56;5039954;28;20599;-65
2022/01/25 09:02:25;;;;;;;19.30;11.18;;;;;;;1.39;34.60;96389.34;5047388;28;20029;-67
2022/01/25 09:04:51;;;;;;;22.30;12.27;;;;;;;2.86;31.98;96370.38;5034016;28;20029;-70
2022/01/25 09:07:16;;;;;;;19.27;12.27;;;;;;;2.80;31.90;96389.09;5024900;28;20044;-64
2022/01/25 09:09:42;;;;;;;26.17;12.90;;;;;;;3.85;30.85;96375.91;5033484;28;20018;-66
2022/01/25 09:12:08;;;;;;;23.40;14.18;;;;;;;3.29;30.80;96360.50;5042919;28;20048;-71
2022/01/25 09:14:34;;;;;;;23.80;15.38;;;;;;;4.84;29.41;96319.72;5046293;28;20033;-69
2022/01/25 09:17:00;;;;;;;18.45;12.18;;;;;;;3.70;29.09;96296.19;5048325;28;20036;-70
2022/01/25 09:19:25;;;;;;;18.63;11.13;;;;;;;4.37;28.20;96358.88;5035586;28;20117;-66
2022/01/25 09:21:51;;;;;;;23.65;14.88;;;;;;;5.84;27.39;96346.59;5029729;28;20112;-72
2022/01/25 09:24:17;;;;;;;26.42;14.45;;;;;;;6.66;25.32;96336.06;5033682;28;20036;-72
2022/01/25 09:26:42;;;;;;;19.73;12.48;;;;;;;4.53;28.09;96298.16;5032315;28;20041;-70
2022/01/25 09:29:08;;;;;;;26.25;17.52;;;;;;;6.11;26.42;96287.94;5049852;28;20036;-73
2022/01/25 09:31:34;;;;;;;24.33;16.45;;;;;;;8.06;24.84;96332.84;5048819;28;20111;-71
2022/01/25 09:34:00;;;;;;;24.63;16.17;;;;;;;9.66;22.75;96323.84;5050473;28;20406;-71
2022/01/25 09:36:25;;;;;;;21.92;14.93;;;;;;;9.95;21.65;96288.38;5032678;28;20037;-71
2022/01/25 09:38:55;;;;;;;23.13;15.75;;;;;;;10.22;20.97;96283.84;5055464;28;20032;-73
2022/01/25 09:41:21;;;;;;;23.67;15.73;;;;;;;11.48;20.42;96303.34;5039919;28;20152;-71
2022/01/25 09:43:48;;;;;;;23.15;15.88;;;;;;;11.12;19.94;96301.53;5057518;28;20146;-73
2022/01/25 09:46:14;;;;;;;23.95;16.50;;;;;;;11.28;19.35;96299.09;5042163;28;20040;-74
2022/01/25 09:48:39;;;;;;;20.25;14.50;;;;;;;9.90;20.95;96308.31;5059174;28;20435;-72
2022/01/25 09:51:08;;;;;;;22.60;16.35;;;;;;;9.24;21.53;96280.00;5049585;28;20101;-72
2022/01/25 09:53:34;;;;;;;21.08;15.40;;;;;;;8.47;22.13;96309.28;5049635;28;20021;-72
2022/01/25 09:55:59;;;;;;;22.92;15.25;;;;;;;6.62;24.22;96302.00;5011432;28;20036;-70
2022/01/25 09:58:25;;;;;;;24.45;14.52;;;;;;;5.03;26.15;96286.97;5039476;28;20700;-71
2022/01/25 10:00:56;;;;;;;18.60;12.25;;;;;;;4.23;27.00;96236.56;5053356;28;20043;-75
2022/01/25 10:03:30;;;;;;;20.20;12.35;;;;;;;3.93;26.91;96064.41;5060311;28;20539;-72
2022/01/25 10:05:59;;;;;;;27.73;16.83;;;;;;;6.89;24.78;96235.47;5060928;28;20351;-73
2022/01/25 10:08:29;;;;;;;26.80;15.70;;;;;;;7.82;24.23;96275.41;5063277;28;20117;-74
2022/01/25 10:10:59;;;;;;;23.13;15.70;;;;;;;9.02;22.43;96212.16;5052326;28;20020;-74
2022/01/25 10:13:24;;;;;;;23.00;15.15;;;;;;;9.66;21.42;96282.66;5047883;28;20025;-74
2022/01/25 10:16:03;;;;;;;24.83;16.83;;;;;;;10.30;21.03;96278.38;5048718;28;20047;-71
2022/01/25 10:18:51;;;;;;;28.85;17.67;;;;;;;8.38;21.74;96152.75;5026237;28;20390;-72
2022/01/25 10:21:24;;;;;;;25.17;16.80;;;;;;;9.13;22.40;96275.22;5052237;28;20040;-73
2022/01/25 10:24:02;;;;;;;20.83;14.02;;;;;;;6.34;24.51;96289.09;5046783;28;20114;-72
2022/01/25 10:26:41;;;;;;;21.30;14.25;;;;;;;8.48;23.44;96297.25;5028614;28;20090;-72
2022/01/25 10:29:13;;;;;;;25.02;15.88;;;;;;;10.02;21.01;96229.69;5039861;28;20036;-71
2022/01/25 10:31:47;;;;;;;27.42;17.13;;;;;;;8.21;22.71;96263.88;5040614;28;20033;-74
2022/01/25 10:34:16;;;;;;;21.77;14.55;;;;;;;5.99;25.69;96283.13;5045797;28;20065;-76
2022/01/25 10:36:46;;;;;;;26.75;17.05;;;;;;;7.46;24.05;96232.03;5026569;28;20037;-71
2022/01/25 10:39:13;;;;;;;24.17;16.20;;;;;;;8.82;22.80;96255.75;5044863;28;20021;-76
2022/01/25 10:41:42;;;;;;;21.83;14.00;;;;;;;7.90;23.72;96198.97;5019641;28;20124;-73
2022/01/25 10:44:11;;;;;;;23.55;13.75;;;;;;;8.19;22.32;96093.50;5045067;28;20109;-73
2022/01/25 10:46:36;;;;;;;25.75;17.85;;;;;;;10.01;21.98;96246.06;5024309;28;20080;-73
2022/01/25 10:49:06;;;;;;;27.45;17.35;;;;;;;10.42;21.47;96241.78;5043565;28;20292;-71
2022/01/25 10:51:49;;;;;;;27.30;17.50;;;;;;;10.03;21.77;96234.78;5029182;28;20079;-74
2022/01/25 10:54:23;;;;;;;21.88;13.52;;;;;;;9.19;22.00;96164.34;5036796;28;20056;-73
2022/01/25 10:56:56;;;;;;;20.42;14.75;;;;;;;10.04;20.86;96231.31;5011273;28;20393;-72
2022/01/25 10:59:32;;;;;;;24.70;15.00;;;;;;;7.68;22.72;96082.44;5013547;28;20616;-72
2022/01/25 11:02:04;;;;;;;21.25;13.82;;;;;;;9.01;22.11;96210.47;5038962;28;20120;-73
2022/01/25 11:04:36;;;;;;;19.48;14.15;;;;;;;9.45;21.84;96219.94;5031661;28;20549;-72
2022/01/25 11:07:05;;;;;;;22.75;15.32;;;;;;;9.59;21.49;96215.97;5023723;28;20041;-70
2022/01/25 11:09:40;;;;;;;22.65;14.57;;;;;;;9.55;21.34;96154.31;5037390;28;20025;-70
2022/01/25 11:12:09;;;;;;;21.55;14.75;;;;;;;8.86;21.80;96068.75;5042180;28;20424;-69
2022/01/25 11:14:56;;;;;;;24.48;15.48;;;;;;;10.27;20.83;96134.13;5044386;28;20385;-70
2022/01/25 11:17:28;;;;;;;21.60;14.50;;;;;;;9.68;21.10;96188.13;5039602;28;20037;-73
2022/01/25 11:19:55;;;;;;;21.63;16.20;;;;;;;10.59;20.78;96209.25;5042655;28;20036;-76
2022/01/25 11:22:21;;;;;;;22.98;15.02;;;;;;;11.58;19.01;96172.84;5042011;28;20047;-73
2022/01/25 11:25:04;;;;;;;22.00;15.18;;;;;;;10.56;19.15;95974.69;5020697;28;20025;-74
2022/01/25 11:27:31;;;;;;;20.48;13.70;;;;;;;11.14;19.99;96193.88;5023951;28;20524;-74
2022/01/25 11:30:00;;;;;;;21.92;15.63;;;;;;;10.12;19.91;96072.03;5024300;28;20041;-75
2022/01/25 11:32:31;;;;;;;17.38;11.25;;;;;;;8.64;21.90;96160.41;5032578;28;20066;-73
2022/01/25 11:34:58;;;;;;;22.92;15.55;;;;;;;9.85;21.48;96179.69;5028095;28;20037;-73
2022/01/25 11:37:38;;;;;;;20.98;14.10;;;;;;;7.89;22.47;96151.03;5029680;28;20026;-78
2022/01/25 11:40:19;;;;;;;22.10;15.68;;;;;;;11.14;20.34;96164.63;5037274;28;20045;-75
2022/01/25 11:42:50;;;;;;;26.60;17.15;;;;;;;11.04;19.84;96017.09;5020326;28;20036;-74
2022/01/25 11:45:21;;;;;;;21.60;15.27;;;;;;;10.70;19.57;96047.09;5016832;28;20467;-74
2022/01/25 11:47:49;;;;;;;27.00;15.35;;;;;;;10.41;20.27;96141.28;5026283;28;20053;-74
2022/01/25 11:50:15;;;;;;;30.63;19.40;;;;;;;10.58;20.53;96123.31;5028080;28;20040;-76
2022/01/25 11:52:50;;;;;;;26.80;17.67;;;;;;;11.25;20.99;96149.47;5028459;28;20068;-71
2022/01/25 11:55:18;;;;;;;22.98;17.42;;;;;;;11.71;19.75;96144.66;5042035;28;20715;-72
2022/01/25 11:57:58;;;;;;;23.80;16.38;;;;;;;12.06;19.48;96082.63;5030948;28;20018;-74
2022/01/25 12:00:48;;;;;;;20.00;16.00;;;;;;;11.22;19.75;96150.44;5039722;28;20518;-72
2022/01/25 12:03:21;;;;;;;21.80;12.68;;;;;;;10.06;20.06;96015.59;5051577;28;20060;-71
2022/01/25 12:06:07;;;;;;;23.45;16.70;;;;;;;11.73;19.17;96075.66;5037867;28;20486;-73
2022/01/25 12:11:36;;;;;;;26.27;19.10;;;;;;;13.12;18.62;96121.84;5031640;28;20082;-71
2022/01/25 12:14:23;;;;;;;23.83;16.00;;;;;;;11.93;19.44;96120.34;5033161;28;20072;-71
2022/01/25 12:17:03;;;;;;;26.30;16.48;;;;;;;10.87;20.21;96126.31;5028114;28;20029;-71
2022/01/25 12:19:35;;;;;;;26.10;17.42;;;;;;;11.93;20.04;96126.34;5027659;28;20186;-72
2022/01/25 12:22:12;;;;;;;22.02;15.50;;;;;;;10.71;19.78;96020.41;5028870;28;20221;-71
2022/01/25 12:24:46;;;;;;;22.38;15.20;;;;;;;10.83;19.92;96114.44;5028055;28;20408;-69
2022/01/25 12:27:20;;;;;;;20.60;14.43;;;;;;;10.57;19.83;95992.66;5026656;28;20112;-71
2022/01/25 12:30:08;;;;;;;19.13;13.80;;;;;;;9.30;21.38;96056.66;5028219;28;20029;-72
2022/01/25 12:32:59;;;;;;;26.80;15.45;;;;;;;9.04;20.86;95884.50;5029046;28;20040;-72
2022/01/25 12:35:40;;;;;;;23.90;16.77;;;;;;;10.39;20.68;96087.19;5030139;28;20060;-70
2022/01/25 12:38:23;;;;;;;20.80;14.48;;;;;;;11.22;19.90;96100.56;5029600;28;20111;-71
2022/01/25 12:40:50;;;;;;;21.35;15.07;;;;;;;10.63;19.87;96038.00;5035082;28;20491;-74
2022/01/25 12:43:23;;;;;;;22.23;14.65;;;;;;;10.48;20.73;96091.13;5049723;28;20116;-73
2022/01/25 12:45:54;;;;;;;20.38;15.70;;;;;;;10.98;20.49;96090.50;5050901;28;20629;-73
2022/01/25 12:48:25;;;;;;;22.15;15.50;;;;;;;10.68;20.39;96030.03;5050073;28;20072;-73
2022/01/25 12:50:54;;;;;;;;;;;;;;;11.24;20.08;96080.66;5032038;28;20683;-73
2022/01/25 12:53:24;;;;;;;22.40;16.83;;;;;;;11.00;20.61;96078.38;5049799;28;19982;-64
2022/01/25 12:55:53;;;;;;;21.02;14.52;;;;;;;10.75;19.91;96054.63;5055528;28;20517;-65
2022/01/25 12:58:23;;;;;;;15.48;12.15;;;;;;;9.63;20.96;96052.72;5057597;28;20024;-66
2022/01/25 13:00:52;;;;;;;21.95;14.68;;;;;;;9.93;20.35;96051.38;5051580;28;20054;-68
2022/01/25 13:03:22;;;;;;;22.50;14.60;;;;;;;10.29;19.93;96084.16;5046011;28;20033;-69
2022/01/25 13:05:53;;;;;;;18.30;13.48;;;;;;;9.57;21.13;96084.72;5039651;28;20033;-68
2022/01/25 13:08:26;;;;;;;22.20;14.77;;;;;;;9.89;20.90;96062.75;5053487;28;20196;-72
2022/01/25 13:11:11;;;;;;;17.17;10.20;;;;;;;8.65;21.11;96005.22;5042628;28;20280;-68